createdAt,value
2022-10-09T00:04:33.113Z,10.48
2022-10-09T00:09:34.803Z,10.44
2022-10-09T00:14:36.477Z,10.40
2022-10-09T00:19:38.079Z,10.47
2022-10-09T00:24:39.815Z,10.49
2022-10-09T00:29:41.514Z,10.45
2022-10-09T00:34:48.319Z,10.33
2022-10-09T00:39:49.881Z,10.34
2022-10-09T00:44:57.285Z,10.35
2022-10-09T00:50:15.415Z,10.36
2022-10-09T00:55:17.669Z,10.30
2022-10-09T01:00:19.694Z,10.31
2022-10-09T01:05:34.869Z,10.31
2022-10-09T01:10:49.948Z,10.17
2022-10-09T01:16:01.923Z,9.88
2022-10-09T01:21:58.143Z,10.04
2022-10-09T01:27:22.062Z,10.11
2022-10-09T01:32:28.978Z,9.86
2022-10-09T01:37:32.065Z,9.98
2022-10-09T01:42:33.691Z,10.06
2022-10-09T01:47:36.819Z,10.07
2022-10-09T01:52:54.323Z,9.96
2022-10-09T01:58:12.024Z,9.91
2022-10-09T02:03:16.452Z,9.97
2022-10-09T02:08:20.485Z,9.98
2022-10-09T02:13:23.693Z,9.95
2022-10-09T02:18:38.270Z,9.91
2022-10-09T02:23:42.015Z,9.75
2022-10-09T02:28:46.035Z,9.67
2022-10-09T02:33:58.279Z,9.56
2022-10-09T02:39:00.139Z,9.44
2022-10-09T02:44:02.995Z,9.37
2022-10-09T02:49:05.985Z,9.28
2022-10-09T02:54:07.861Z,9.25
2022-10-09T02:59:09.459Z,9.32
2022-10-09T03:04:11.214Z,9.32
2022-10-09T03:09:12.836Z,9.27
2022-10-09T03:14:14.541Z,9.33
2022-10-09T03:19:16.214Z,9.27
2022-10-09T03:24:17.821Z,9.35
2022-10-09T03:29:19.612Z,9.42
2022-10-09T03:34:21.402Z,9.28
2022-10-09T03:39:22.947Z,9.29
2022-10-09T03:44:24.494Z,9.43
2022-10-09T03:49:26.180Z,9.32
2022-10-09T03:54:27.909Z,9.41
2022-10-09T03:59:29.458Z,9.53
2022-10-09T04:04:31.099Z,9.37
2022-10-09T04:09:32.656Z,9.39
2022-10-09T04:14:34.270Z,9.42
2022-10-09T04:19:36.494Z,9.38
2022-10-09T04:24:38.138Z,9.41
2022-10-09T04:29:39.830Z,9.44
2022-10-09T04:34:41.443Z,9.40
2022-10-09T04:39:43.111Z,9.39
2022-10-09T04:44:44.727Z,9.48
2022-10-09T04:49:46.474Z,9.38
2022-10-09T04:54:48.070Z,9.14
2022-10-09T04:59:49.707Z,9.14
2022-10-09T05:04:51.614Z,9.13
2022-10-09T05:09:53.255Z,9.00
2022-10-09T05:14:54.887Z,8.90
2022-10-09T05:19:56.502Z,9.02
2022-10-09T05:24:58.231Z,9.00
2022-10-09T05:29:59.883Z,8.80
2022-10-09T05:35:02.844Z,8.68
2022-10-09T05:40:04.908Z,8.66
2022-10-09T05:45:08.509Z,8.84
2022-10-09T05:50:10.157Z,8.70
2022-10-09T05:55:11.750Z,8.56
2022-10-09T06:00:16.384Z,8.48
2022-10-09T06:05:18.527Z,8.54
2022-10-09T06:10:20.104Z,8.49
2022-10-09T06:15:21.659Z,8.57
2022-10-09T06:20:23.494Z,8.51
2022-10-09T06:25:25.120Z,8.37
2022-10-09T06:30:26.836Z,8.34
2022-10-09T06:35:28.459Z,8.36
2022-10-09T06:40:30.255Z,8.37
2022-10-09T06:45:36.171Z,8.40
2022-10-09T06:50:38.092Z,8.29
2022-10-09T06:55:39.671Z,8.34
2022-10-09T07:00:41.305Z,8.46
2022-10-09T07:05:42.902Z,8.60
2022-10-09T07:10:44.551Z,8.76
2022-10-09T07:15:46.240Z,8.80
2022-10-09T07:20:47.910Z,8.86
2022-10-09T07:25:49.554Z,8.99
2022-10-09T07:30:52.809Z,9.19
2022-10-09T07:35:59.328Z,9.37
2022-10-09T07:41:03.360Z,9.51
2022-10-09T07:46:07.477Z,9.76
2022-10-09T07:51:15.851Z,10.05
2022-10-09T07:56:23.423Z,10.29
2022-10-09T08:01:27.576Z,10.52
2022-10-09T08:06:30.124Z,10.72
2022-10-09T08:11:32.447Z,11.01
2022-10-09T08:16:34.098Z,11.22
2022-10-09T08:21:35.701Z,11.74
2022-10-09T08:26:37.339Z,11.74
2022-10-09T08:31:39.326Z,11.68
2022-10-09T08:36:41.070Z,11.80
2022-10-09T08:41:49.557Z,12.00
2022-10-09T08:47:26.708Z,12.28
2022-10-09T08:52:49.703Z,12.20
2022-10-09T08:57:54.721Z,12.60
2022-10-09T09:03:29.936Z,12.68
2022-10-09T09:08:50.021Z,12.71
2022-10-09T09:13:54.578Z,12.95
2022-10-09T09:19:17.754Z,13.20
2022-10-09T09:24:21.904Z,13.24
2022-10-09T09:29:26.238Z,13.54
2022-10-09T09:34:40.873Z,13.91
2022-10-09T09:40:31.313Z,14.29
2022-10-09T09:45:10.721Z,14.42
2022-10-09T09:50:35.203Z,14.31
2022-10-09T09:55:34.738Z,14.58
2022-10-09T10:00:36.485Z,14.80
2022-10-09T10:05:39.874Z,14.96
2022-10-09T10:10:47.704Z,15.10
2022-10-09T10:15:52.906Z,15.38
2022-10-09T10:20:57.838Z,15.42
2022-10-09T10:26:03.555Z,15.47
2022-10-09T10:31:10.200Z,15.84
2022-10-09T10:36:11.922Z,15.80
2022-10-09T10:41:34.840Z,15.74
2022-10-09T10:46:52.504Z,16.19
2022-10-09T10:52:20.293Z,16.27
2022-10-09T10:57:30.782Z,16.25
2022-10-09T11:02:57.109Z,16.26
2022-10-09T11:08:15.129Z,16.34
2022-10-09T11:13:25.467Z,16.20
2022-10-09T11:18:55.104Z,16.37
2022-10-09T11:24:18.314Z,16.41
2022-10-09T11:29:25.592Z,16.39
2022-10-09T11:34:38.018Z,16.55
2022-10-09T11:39:39.920Z,16.39
2022-10-09T11:44:48.201Z,16.69
2022-10-09T11:49:58.908Z,16.57
2022-10-09T11:55:22.215Z,16.89
2022-10-09T12:00:33.339Z,16.86
2022-10-09T12:05:40.326Z,16.67
2022-10-09T12:10:51.303Z,16.26
2022-10-09T12:15:56.231Z,16.48
2022-10-09T12:21:01.092Z,16.74
2022-10-09T12:26:04.265Z,16.66
2022-10-09T12:31:17.574Z,16.68
2022-10-09T12:36:25.564Z,16.35
2022-10-09T12:41:31.465Z,16.46
2022-10-09T12:46:38.705Z,16.47
2022-10-09T12:51:40.565Z,16.68
2022-10-09T12:56:42.663Z,16.71
2022-10-09T13:01:46.038Z,16.62
2022-10-09T13:06:50.079Z,16.57
2022-10-09T13:11:59.836Z,16.32
2022-10-09T13:17:02.037Z,16.21
2022-10-09T13:22:23.650Z,16.15
2022-10-09T13:27:31.824Z,16.10
2022-10-09T13:32:33.489Z,16.15
2022-10-09T13:37:35.206Z,16.12
2022-10-09T13:42:37.358Z,16.16
2022-10-09T13:47:38.938Z,16.07
2022-10-09T13:57:47.316Z,16.03
2022-10-09T14:02:49.109Z,15.99
2022-10-09T14:07:50.988Z,16.02
2022-10-09T14:13:11.295Z,16.15
2022-10-09T14:18:12.846Z,15.98
2022-10-09T14:23:14.495Z,15.85
2022-10-09T14:28:16.214Z,15.75
2022-10-09T14:33:17.835Z,15.63
2022-10-09T14:38:19.512Z,15.69
2022-10-09T14:43:22.809Z,15.64
2022-10-09T14:48:25.419Z,15.60
2022-10-09T14:53:26.994Z,15.52
2022-10-09T14:58:33.075Z,15.59
2022-10-09T15:03:35.845Z,15.47
2022-10-09T15:08:40.823Z,15.42
2022-10-09T15:13:42.606Z,15.45
2022-10-09T15:18:45.327Z,15.36
2022-10-09T15:23:47.594Z,15.32
2022-10-09T15:28:49.454Z,15.27
2022-10-09T15:33:52.431Z,15.25
2022-10-09T15:38:54.736Z,15.20
2022-10-09T15:44:01.179Z,15.11
2022-10-09T15:49:02.847Z,15.14
2022-10-09T15:54:04.870Z,15.06
2022-10-09T15:59:10.601Z,14.98
2022-10-09T16:04:12.266Z,14.96
2022-10-09T16:09:13.978Z,14.94
2022-10-09T16:14:15.567Z,14.92
2022-10-09T16:19:17.183Z,14.85
2022-10-09T16:24:18.962Z,14.82
2022-10-09T16:29:20.636Z,14.77
2022-10-09T16:34:22.262Z,14.70
2022-10-09T16:39:23.804Z,14.63
2022-10-09T16:44:25.447Z,14.55
2022-10-09T16:49:27.086Z,14.55
2022-10-09T16:54:28.798Z,14.48
2022-10-09T16:59:33.273Z,14.43
2022-10-09T17:04:35.632Z,14.43
2022-10-09T17:09:38.432Z,14.34
2022-10-09T17:14:40.872Z,14.25
2022-10-09T17:19:43.374Z,14.22
2022-10-09T17:24:45.234Z,14.27
2022-10-09T17:29:49.294Z,14.16
2022-10-09T17:34:51.068Z,14.11
2022-10-09T17:39:52.826Z,14.04
2022-10-09T17:45:00.676Z,14.02
2022-10-09T17:50:02.747Z,13.95
2022-10-09T17:55:04.867Z,13.93
2022-10-09T18:00:17.483Z,13.87
2022-10-09T18:05:21.467Z,13.87
2022-10-09T18:10:23.161Z,13.83
2022-10-09T18:15:25.030Z,13.75
2022-10-09T18:20:40.565Z,13.68
2022-10-09T18:25:43.753Z,13.60
2022-10-09T18:30:48.560Z,13.51
2022-10-09T18:35:50.304Z,13.41
2022-10-09T18:40:52.093Z,13.40
2022-10-09T18:46:00.817Z,13.31
2022-10-09T18:51:06.106Z,13.21
2022-10-09T18:56:19.123Z,13.18
2022-10-09T19:01:21.830Z,13.08
2022-10-09T19:06:23.716Z,13.01
2022-10-09T19:11:25.463Z,12.90
2022-10-09T19:16:28.754Z,12.86
2022-10-09T19:21:30.441Z,12.83
2022-10-09T19:26:33.157Z,12.76
2022-10-09T19:31:35.639Z,12.76
2022-10-09T19:36:37.652Z,12.80
2022-10-09T19:41:41.843Z,12.81
2022-10-09T19:46:45.456Z,12.85
2022-10-09T19:51:47.341Z,12.86
2022-10-09T19:56:49.271Z,12.79
2022-10-09T20:01:55.182Z,12.71
2022-10-09T20:07:00.890Z,12.60
2022-10-09T20:12:02.826Z,12.67
2022-10-09T20:17:04.587Z,12.58
2022-10-09T20:22:09.173Z,12.57
2022-10-09T20:27:10.839Z,12.50
2022-10-09T20:32:13.120Z,12.51
2022-10-09T20:37:14.828Z,12.45
2022-10-09T20:42:16.561Z,12.36
2022-10-09T20:47:18.126Z,12.23
2022-10-09T20:52:19.742Z,12.16
2022-10-09T20:57:21.459Z,12.10
2022-10-09T21:02:24.570Z,12.05
2022-10-09T21:07:26.205Z,11.95
2022-10-09T21:12:27.820Z,11.84
2022-10-09T21:17:29.712Z,11.77
2022-10-09T21:22:32.379Z,11.72
2022-10-09T21:27:34.068Z,11.74
2022-10-09T21:32:38.512Z,11.82
2022-10-09T21:37:40.353Z,11.80
2022-10-09T21:42:42.765Z,11.70
2022-10-09T21:47:44.457Z,11.61
2022-10-09T21:52:48.042Z,11.52
2022-10-09T21:57:50.165Z,11.48
2022-10-09T22:02:54.271Z,11.51
2022-10-09T22:07:55.902Z,11.53
2022-10-09T22:12:57.791Z,11.44
2022-10-09T22:18:02.411Z,11.39
2022-10-09T22:23:04.275Z,11.28
2022-10-09T22:28:18.077Z,11.15
2022-10-09T22:33:19.735Z,11.14
2022-10-09T22:38:21.309Z,11.05
2022-10-09T22:43:22.943Z,11.08
2022-10-09T22:48:30.388Z,10.89
2022-10-09T22:53:32.804Z,10.90
2022-10-09T22:58:35.925Z,10.80
2022-10-09T23:03:37.523Z,10.76
2022-10-09T23:08:40.969Z,10.67
2022-10-09T23:13:43.222Z,10.63
2022-10-09T23:18:44.863Z,10.69
2022-10-09T23:23:48.090Z,10.65
2022-10-09T23:28:52.164Z,10.59
2022-10-09T23:33:54.826Z,10.51
2022-10-09T23:38:57.796Z,10.52
2022-10-09T23:43:59.563Z,10.43
2022-10-09T23:49:01.664Z,10.41
2022-10-09T23:54:03.464Z,10.31
2022-10-09T23:59:09.004Z,10.30
